»·PEaware :: DAL1483 KLAS-KSLC

DAL1483 :: KLAS-KSLC

FLIGHT INFORMATION

Flight Status: Arrived
Operator:
Delta Air Lines
More flights by this operator :: More flights under this callsign
Pilot: Brad Z. (13827)
Aircraft: AIRBUS A320
(A320)
More flights by this aircraft type
Origin: KLAS McCarran Intl
United States
Destination: KSLC Salt Lake City Intl
United States
More flights between these airports :: More routes between these airports
Route: +TRALR9 MLF DELTA5
File this flight plan on PilotEdge
Remarks:
Altitude:
(Current/Filed)
310ft
Speed:
(Current/Filed)
541kts
Departed: 18-Apr-18 05:57 PM
Arrived: 18-Apr-18 06:57 PM
Distance/Time
Traveled:
319nm/1:00
Distance/Time
To Go:
Arrived

Flight Plot

Page will automatically refresh every two minutes.

Flight plan parsing failed; only flown route is shown


Map Options




Map Legend


Flown Route
Filed Route
Departure Airport
Arrival Airport
Navaid (VOR, NDB)
Fix

Horizontal Profiles

Position Reports

Time Latitude Longitude Heading Altitude Ground
Speed
18-Apr-18 17:37 36.080405 -115.138793 344 2195ft 0kts
18-Apr-18 17:38 36.080405 -115.138793 344 2195ft 0kts
18-Apr-18 17:39 36.080405 -115.138793 344 2195ft 0kts
18-Apr-18 17:40 36.080405 -115.138793 344 2195ft 0kts
18-Apr-18 17:41 36.080405 -115.138793 344 2195ft 0kts
18-Apr-18 17:42 36.080405 -115.138793 344 2195ft 0kts
18-Apr-18 17:43 36.080405 -115.138793 344 2195ft 0kts
18-Apr-18 17:44 36.080405 -115.138793 344 2195ft 0kts
18-Apr-18 17:45 36.080405 -115.138793 344 2195ft 0kts
18-Apr-18 17:46 36.080034 -115.138670 344 2195ft 2kts
18-Apr-18 17:47 36.079534 -115.138505 344 2195ft 0kts
18-Apr-18 17:48 36.079534 -115.138505 344 2195ft 0kts
18-Apr-18 17:49 36.079534 -115.138505 344 2195ft 0kts
18-Apr-18 17:50 36.079535 -115.138505 344 2195ft 0kts
18-Apr-18 17:51 36.079730 -115.138379 37 2195ft 4kts
18-Apr-18 17:52 36.079111 -115.136153 134 2195ft 12kts
18-Apr-18 17:53 36.078315 -115.131218 90 2195ft 16kts
18-Apr-18 17:54 36.078294 -115.125205 88 2195ft 14kts
18-Apr-18 17:55 36.076903 -115.121213 177 2195ft 12kts
18-Apr-18 17:56 36.076395 -115.136037 271 2195ft 149kts
18-Apr-18 17:57 36.076324 -115.198686 271 4246ft 196kts
18-Apr-18 17:58 36.072563 -115.277408 240 5742ft 266kts
18-Apr-18 17:59 36.002339 -115.301170 179 8655ft 275kts
18-Apr-18 18:00 35.943323 -115.248284 100 11001ft 330kts
18-Apr-18 18:01 35.971130 -115.128525 73 12653ft 388kts
18-Apr-18 18:02 36.003916 -114.998748 75 15062ft 403kts
18-Apr-18 18:03 36.038411 -114.863828 74 17096ft 421kts
18-Apr-18 18:04 36.074053 -114.722849 75 18911ft 439kts
18-Apr-18 18:05 36.111021 -114.576158 74 20635ft 453kts
18-Apr-18 18:06 36.148802 -114.425097 74 22201ft 467kts
18-Apr-18 18:07 36.187637 -114.269021 74 23633ft 480kts
18-Apr-18 18:08 36.243472 -114.116574 64 24957ft 493kts
18-Apr-18 18:09 36.303419 -113.962079 65 26201ft 503kts
18-Apr-18 18:10 36.364552 -113.803764 65 27369ft 512kts
18-Apr-18 18:11 36.434969 -113.649859 44 28601ft 516kts
18-Apr-18 18:12 36.558513 -113.576187 6 30058ft 493kts
18-Apr-18 18:13 36.692221 -113.536967 8 31032ft 489kts
18-Apr-18 18:14 36.824161 -113.496140 7 31024ft 489kts
18-Apr-18 18:15 36.956181 -113.455373 8 31011ft 490kts
18-Apr-18 18:16 37.088836 -113.414411 8 30999ft 490kts
18-Apr-18 18:17 37.220980 -113.373353 8 30995ft 490kts
18-Apr-18 18:18 37.353470 -113.332091 8 31008ft 489kts
18-Apr-18 18:19 37.485486 -113.290806 8 31008ft 490kts
18-Apr-18 18:20 37.617691 -113.249277 8 31075ft 490kts
18-Apr-18 18:21 37.750294 -113.207506 8 31102ft 490kts
18-Apr-18 18:22 37.882582 -113.165687 8 31099ft 490kts
18-Apr-18 18:23 38.014740 -113.123760 8 31095ft 490kts
18-Apr-18 18:24 38.147425 -113.081473 8 31032ft 491kts
18-Apr-18 18:25 38.279380 -113.039268 8 31085ft 489kts
18-Apr-18 18:26 38.410028 -112.987614 18 31006ft 496kts
18-Apr-18 18:27 38.536918 -112.919021 17 31010ft 495kts
18-Apr-18 18:28 38.664027 -112.851314 18 31073ft 495kts
18-Apr-18 18:29 38.790840 -112.783123 18 30362ft 495kts
18-Apr-18 18:30 38.916712 -112.715198 18 29370ft 488kts
18-Apr-18 18:31 39.040670 -112.648109 18 28377ft 480kts
18-Apr-18 18:32 39.163204 -112.581474 19 27379ft 474kts
18-Apr-18 18:33 39.283449 -112.515890 19 26386ft 466kts
18-Apr-18 18:34 39.406668 -112.470948 9 25389ft 455kts
18-Apr-18 18:35 39.528398 -112.430562 10 24396ft 449kts
18-Apr-18 18:36 39.648289 -112.390704 10 23402ft 442kts
18-Apr-18 18:37 39.766482 -112.351133 10 22402ft 434kts
18-Apr-18 18:38 39.882101 -112.312341 10 20293ft 427kts
18-Apr-18 18:39 39.996309 -112.273935 11 18064ft 419kts
18-Apr-18 18:40 40.106267 -112.236655 12 16306ft 391kts
18-Apr-18 18:41 40.207953 -112.202199 13 15112ft 368kts
18-Apr-18 18:42 40.304759 -112.169294 13 14006ft 356kts
18-Apr-18 18:43 40.401822 -112.136169 14 13030ft 361kts
18-Apr-18 18:44 40.499144 -112.102938 14 12932ft 361kts
18-Apr-18 18:45 40.595736 -112.080071 2 11522ft 342kts
18-Apr-18 18:46 40.682758 -112.083726 354 10993ft 288kts
18-Apr-18 18:47 40.760328 -112.092907 354 10112ft 278kts
18-Apr-18 18:48 40.835015 -112.101747 355 8940ft 259kts
18-Apr-18 18:49 40.905992 -112.110246 355 7739ft 253kts
18-Apr-18 18:50 40.975551 -112.113375 23 7260ft 250kts
18-Apr-18 18:51 40.993793 -112.037254 101 6478ft 231kts
18-Apr-18 18:52 40.943079 -112.012951 181 6516ft 206kts
18-Apr-18 18:53 40.893394 -112.009144 174 5912ft 155kts
18-Apr-18 18:54 40.851939 -112.004348 174 5131ft 148kts
18-Apr-18 18:55 40.811213 -111.999598 175 4353ft 145kts
18-Apr-18 18:56 40.788249 -111.996793 143 4241ft 9kts
18-Apr-18 18:57 40.787938 -111.994837 351 4241ft 8kts
18-Apr-18 18:58 40.790840 -111.994983 39 4241ft 10kts
18-Apr-18 18:59 40.791212 -111.991263 83 4241ft 10kts
18-Apr-18 19:00 40.789922 -111.988958 96 4241ft 8kts
18-Apr-18 19:01 40.790126 -111.985331 87 4241ft 10kts
18-Apr-18 19:02 40.789951 -111.981810 82 4241ft 6kts
18-Apr-18 19:03 40.789348 -111.981148 192 4241ft 3kts
18-Apr-18 19:04 40.789211 -111.981188 192 4241ft 0kts
18-Apr-18 19:05 40.789211 -111.981188 192 4241ft 0kts

Navigation Log

Ident Type
Flight plan parsing failed, navigation log unavailable